sensor_id;sensor_type;location;lat;lon;timestamp;pressure;altitude;pressure_sealevel;temperature;humidity
78825;BME280;68176;45.554;10.220;2023-03-16T00:00:50;100095.38;;;13.04;33.21
78825;BME280;68176;45.554;10.220;2023-03-16T00:03:31;100107.84;;;13.02;33.58
78825;BME280;68176;45.554;10.220;2023-03-16T00:06:16;100095.25;;;12.96;33.35
78825;BME280;68176;45.554;10.220;2023-03-16T00:09:02;100099.13;;;13.01;33.38
78825;BME280;68176;45.554;10.220;2023-03-16T00:11:36;100108.81;;;13.01;33.63
78825;BME280;68176;45.554;10.220;2023-03-16T00:14:13;100111.47;;;13.01;34.13
78825;BME280;68176;45.554;10.220;2023-03-16T00:16:39;100105.47;;;12.99;33.29
78825;BME280;68176;45.554;10.220;2023-03-16T00:19:10;100105.19;;;13.02;34.09
78825;BME280;68176;45.554;10.220;2023-03-16T00:21:38;100112.13;;;13.03;34.11
78825;BME280;68176;45.554;10.220;2023-03-16T00:24:07;100103.13;;;13.05;33.84
78825;BME280;68176;45.554;10.220;2023-03-16T00:29:45;100110.75;;;12.99;34.14
78825;BME280;68176;45.554;10.220;2023-03-16T00:32:32;100110.75;;;12.99;33.80
78825;BME280;68176;45.554;10.220;2023-03-16T00:34:58;100120.59;;;13.06;33.64
78825;BME280;68176;45.554;10.220;2023-03-16T00:37:39;100116.56;;;13.02;34.20
78825;BME280;68176;45.554;10.220;2023-03-16T00:40:10;100116.00;;;12.99;34.29
78825;BME280;68176;45.554;10.220;2023-03-16T00:42:39;100118.66;;;12.99;33.64
78825;BME280;68176;45.554;10.220;2023-03-16T00:45:07;100115.72;;;13.02;34.21
78825;BME280;68176;45.554;10.220;2023-03-16T00:47:36;100115.44;;;13.05;34.05
78825;BME280;68176;45.554;10.220;2023-03-16T00:50:06;100110.75;;;12.99;34.49
78825;BME280;68176;45.554;10.220;2023-03-16T00:52:36;100108.53;;;13.04;34.14
78825;BME280;68176;45.554;10.220;2023-03-16T00:55:21;100117.69;;;13.00;34.19
78825;BME280;68176;45.554;10.220;2023-03-16T00:57:49;100131.53;;;13.02;34.47
78825;BME280;68176;45.554;10.220;2023-03-16T01:00:27;100121.28;;;12.99;34.36
78825;BME280;68176;45.554;10.220;2023-03-16T01:02:53;100111.75;;;12.98;34.32
78825;BME280;68176;45.554;10.220;2023-03-16T01:05:21;100122.94;;;13.00;34.03
78825;BME280;68176;45.554;10.220;2023-03-16T01:07:53;100100.50;;;12.96;34.26
78825;BME280;68176;45.554;10.220;2023-03-16T01:10:21;100109.09;;;12.98;34.66
78825;BME280;68176;45.554;10.220;2023-03-16T01:12:49;100107.84;;;13.02;34.63
78825;BME280;68176;45.554;10.220;2023-03-16T01:15:20;100103.13;;;12.96;34.80
78825;BME280;68176;45.554;10.220;2023-03-16T01:17:52;100103.69;;;12.99;35.02
78825;BME280;68176;45.554;10.220;2023-03-16T01:20:25;100105.47;;;12.99;35.19
78825;BME280;68176;45.554;10.220;2023-03-16T01:22:51;100110.47;;;13.02;34.89
78825;BME280;68176;45.554;10.220;2023-03-16T01:25:28;100084.19;;;12.92;35.35
78825;BME280;68176;45.554;10.220;2023-03-16T01:28:01;100098.56;;;12.98;35.68
78825;BME280;68176;45.554;10.220;2023-03-16T01:30:30;100100.78;;;12.93;35.46
78825;BME280;68176;45.554;10.220;2023-03-16T01:33:00;100091.94;;;12.94;35.44
78825;BME280;68176;45.554;10.220;2023-03-16T01:35:30;100098.88;;;12.95;35.46
78825;BME280;68176;45.554;10.220;2023-03-16T01:38:02;100101.34;;;12.96;35.92
78825;BME280;68176;45.554;10.220;2023-03-16T01:40:29;100096.50;;;12.92;35.66
78825;BME280;68176;45.554;10.220;2023-03-16T01:54:29;100097.19;;;12.94;35.97
78825;BME280;68176;45.554;10.220;2023-03-16T01:57:05;100088.63;;;12.92;36.29
78825;BME280;68176;45.554;10.220;2023-03-16T02:02:55;100089.44;;;12.92;36.90
78825;BME280;68176;45.554;10.220;2023-03-16T02:06:14;100088.91;;;12.89;36.51
78825;BME280;68176;45.554;10.220;2023-03-16T02:12:01;100086.25;;;12.89;36.34
78825;BME280;68176;45.554;10.220;2023-03-16T02:14:37;100098.59;;;12.88;36.82
78825;BME280;68176;45.554;10.220;2023-03-16T02:17:05;100088.19;;;12.87;36.80
78825;BME280;68176;45.554;10.220;2023-03-16T02:22:44;100076.44;;;12.81;37.38
78825;BME280;68176;45.554;10.220;2023-03-16T02:31:13;100070.03;;;12.83;37.29
78825;BME280;68176;45.554;10.220;2023-03-16T02:33:42;100081.69;;;12.81;37.39
78825;BME280;68176;45.554;10.220;2023-03-16T02:36:19;100067.84;;;12.79;37.54
78825;BME280;68176;45.554;10.220;2023-03-16T02:39:05;100073.66;;;12.82;37.22
78825;BME280;68176;45.554;10.220;2023-03-16T02:41:33;100074.63;;;12.81;37.34
78825;BME280;68176;45.554;10.220;2023-03-16T02:44:35;100082.53;;;12.81;37.22
78825;BME280;68176;45.554;10.220;2023-03-16T02:47:32;100080.56;;;12.83;37.24
78825;BME280;68176;45.554;10.220;2023-03-16T02:50:00;100080.56;;;12.83;37.66
78825;BME280;68176;45.554;10.220;2023-03-16T02:52:35;100073.53;;;12.74;37.85
78825;BME280;68176;45.554;10.220;2023-03-16T02:55:05;100077.00;;;12.75;37.68
78825;BME280;68176;45.554;10.220;2023-03-16T02:58:00;100075.03;;;12.77;37.82
78825;BME280;68176;45.554;10.220;2023-03-16T03:00:25;100068.53;;;12.71;37.45
78825;BME280;68176;45.554;10.220;2023-03-16T03:02:51;100081.41;;;12.74;37.71
78825;BME280;68176;45.554;10.220;2023-03-16T03:05:23;100069.22;;;12.73;37.57
78825;BME280;68176;45.554;10.220;2023-03-16T03:07:57;100082.09;;;12.76;37.25
78825;BME280;68176;45.554;10.220;2023-03-16T03:10:28;100078.09;;;12.72;38.04
78825;BME280;68176;45.554;10.220;2023-03-16T03:12:54;100086.69;;;12.74;37.97
78825;BME280;68176;45.554;10.220;2023-03-16T03:15:23;100082.09;;;12.76;37.55
78825;BME280;68176;45.554;10.220;2023-03-16T03:17:55;100090.53;;;12.80;37.10
78825;BME280;68176;45.554;10.220;2023-03-16T03:20:30;100086.13;;;12.71;37.44
78825;BME280;68176;45.554;10.220;2023-03-16T03:23:05;100098.03;;;12.75;37.56
78825;BME280;68176;45.554;10.220;2023-03-16T03:25:31;100098.16;;;12.73;38.09
78825;BME280;68176;45.554;10.220;2023-03-16T03:28:11;100099.16;;;12.72;37.74
78825;BME280;68176;45.554;10.220;2023-03-16T03:30:37;100096.09;;;12.67;37.94
78825;BME280;68176;45.554;10.220;2023-03-16T03:33:02;100098.06;;;12.65;38.01
78825;BME280;68176;45.554;10.220;2023-03-16T03:35:37;100096.09;;;12.67;37.82
78825;BME280;68176;45.554;10.220;2023-03-16T03:38:02;100111.31;;;12.73;38.00
78825;BME280;68176;45.554;10.220;2023-03-16T03:40:31;100106.34;;;12.70;38.56
78825;BME280;68176;45.554;10.220;2023-03-16T03:43:04;100126.16;;;12.74;38.03
78825;BME280;68176;45.554;10.220;2023-03-16T03:45:31;100125.75;;;12.69;38.00
78825;BME280;68176;45.554;10.220;2023-03-16T03:48:25;100130.47;;;12.75;37.35
78825;BME280;68176;45.554;10.220;2023-03-16T03:50:54;100132.13;;;12.67;38.35
78825;BME280;68176;45.554;10.220;2023-03-16T03:53:29;100131.28;;;12.66;38.33
78825;BME280;68176;45.554;10.220;2023-03-16T03:55:57;100133.22;;;12.64;38.40
78825;BME280;68176;45.554;10.220;2023-03-16T03:58:44;100130.47;;;12.66;38.33
78825;BME280;68176;45.554;10.220;2023-03-16T04:01:38;100134.59;;;12.68;38.13
78825;BME280;68176;45.554;10.220;2023-03-16T04:04:03;100122.28;;;12.59;38.71
78825;BME280;68176;45.554;10.220;2023-03-16T04:06:31;100119.94;;;12.56;38.39
78825;BME280;68176;45.554;10.220;2023-03-16T04:09:00;100135.16;;;12.62;38.21
78825;BME280;68176;45.554;10.220;2023-03-16T04:11:38;100141.81;;;12.66;38.71
78825;BME280;68176;45.554;10.220;2023-03-16T04:14:10;100136.56;;;12.57;38.58
78825;BME280;68176;45.554;10.220;2023-03-16T04:16:39;100134.59;;;12.59;38.35
78825;BME280;68176;45.554;10.220;2023-03-16T04:22:08;100151.50;;;12.56;38.63
78825;BME280;68176;45.554;10.220;2023-03-16T04:24:48;100146.81;;;12.60;38.77
78825;BME280;68176;45.554;10.220;2023-03-16T04:27:36;100147.06;;;12.57;39.07
78825;BME280;68176;45.554;10.220;2023-03-16T04:30:10;100152.47;;;12.55;39.00
78825;BME280;68176;45.554;10.220;2023-03-16T04:32:46;100145.13;;;12.49;38.82
78825;BME280;68176;45.554;10.220;2023-03-16T04:35:18;100163.53;;;12.49;38.50
78825;BME280;68176;45.554;10.220;2023-03-16T04:37:43;100153.69;;;12.51;39.07
78825;BME280;68176;45.554;10.220;2023-03-16T04:40:12;100170.88;;;12.55;39.20
78825;BME280;68176;45.554;10.220;2023-03-16T04:42:54;100166.84;;;12.51;39.32
78825;BME280;68176;45.554;10.220;2023-03-16T04:45:22;100155.91;;;12.46;39.29
78825;BME280;68176;45.554;10.220;2023-03-16T04:47:48;100170.75;;;12.47;39.01
78825;BME280;68176;45.554;10.220;2023-03-16T04:50:18;100167.84;;;12.50;39.65
78825;BME280;68176;45.554;10.220;2023-03-16T04:52:45;100166.44;;;12.46;39.51
78825;BME280;68176;45.554;10.220;2023-03-16T04:55:17;100168.78;;;12.49;39.30
78825;BME280;68176;45.554;10.220;2023-03-16T04:57:44;100159.66;;;12.44;39.29
78825;BME280;68176;45.554;10.220;2023-03-16T05:00:26;100176.84;;;12.48;39.64
78825;BME280;68176;45.554;10.220;2023-03-16T05:03:01;100170.03;;;12.45;39.17
78825;BME280;68176;45.554;10.220;2023-03-16T05:08:44;100173.63;;;12.44;39.19
78825;BME280;68176;45.554;10.220;2023-03-16T05:11:13;100175.44;;;12.44;39.06
78825;BME280;68176;45.554;10.220;2023-03-16T05:14:08;100170.28;;;12.42;39.19
78825;BME280;68176;45.554;10.220;2023-03-16T05:16:34;100175.56;;;12.42;39.30
78825;BME280;68176;45.554;10.220;2023-03-16T05:19:08;100189.69;;;12.41;39.23
78825;BME280;68176;45.554;10.220;2023-03-16T05:21:57;100177.78;;;12.37;39.56
78825;BME280;68176;45.554;10.220;2023-03-16T05:24:25;100190.94;;;12.37;39.54
78825;BME280;68176;45.554;10.220;2023-03-16T05:27:07;100202.56;;;12.44;39.42
78825;BME280;68176;45.554;10.220;2023-03-16T05:29:33;100206.16;;;12.43;39.61
78825;BME280;68176;45.554;10.220;2023-03-16T05:32:13;100200.75;;;12.35;39.39
78825;BME280;68176;45.554;10.220;2023-03-16T05:34:42;100198.41;;;12.32;39.39
78825;BME280;68176;45.554;10.220;2023-03-16T05:37:25;100199.66;;;12.38;39.46
78825;BME280;68176;45.554;10.220;2023-03-16T05:40:06;100194.09;;;12.31;39.16
78825;BME280;68176;45.554;10.220;2023-03-16T05:43:06;100201.03;;;12.32;39.40
78825;BME280;68176;45.554;10.220;2023-03-16T05:45:48;100205.31;;;12.33;39.54
78825;BME280;68176;45.554;10.220;2023-03-16T05:48:28;100203.78;;;12.30;39.40
78825;BME280;68176;45.554;10.220;2023-03-16T05:51:14;100211.28;;;12.35;39.38
78825;BME280;68176;45.554;10.220;2023-03-16T05:54:17;100201.28;;;12.29;39.81
78825;BME280;68176;45.554;10.220;2023-03-16T06:00:25;100211.94;;;12.27;40.03
78825;BME280;68176;45.554;10.220;2023-03-16T06:02:55;100222.34;;;12.29;39.46
78825;BME280;68176;45.554;10.220;2023-03-16T06:05:35;100224.53;;;12.34;39.63
78825;BME280;68176;45.554;10.220;2023-03-16T06:08:59;100224.97;;;12.29;39.90
78825;BME280;68176;45.554;10.220;2023-03-16T06:12:02;100221.50;;;12.28;39.42
78825;BME280;68176;45.554;10.220;2023-03-16T06:18:21;100247.53;;;12.32;39.75
78825;BME280;68176;45.554;10.220;2023-03-16T06:27:49;100252.75;;;12.22;39.79
78825;BME280;68176;45.554;10.220;2023-03-16T06:33:57;100263.28;;;12.22;39.74
78825;BME280;68176;45.554;10.220;2023-03-16T06:36:31;100269.47;;;12.21;40.43
78825;BME280;68176;45.554;10.220;2023-03-16T06:38:59;100270.75;;;12.26;39.85
78825;BME280;68176;45.554;10.220;2023-03-16T06:41:36;100272.94;;;12.21;39.70
78825;BME280;68176;45.554;10.220;2023-03-16T06:44:08;100279.03;;;12.22;40.01
78825;BME280;68176;45.554;10.220;2023-03-16T06:46:36;100282.38;;;12.24;39.80
78825;BME280;68176;45.554;10.220;2023-03-16T06:49:04;100271.41;;;12.19;39.87
78825;BME280;68176;45.554;10.220;2023-03-16T06:54:21;100293.28;;;12.19;39.59
78825;BME280;68176;45.554;10.220;2023-03-16T06:56:58;100283.72;;;12.18;39.62
78825;BME280;68176;45.554;10.220;2023-03-16T06:59:50;100288.16;;;12.18;39.81
78825;BME280;68176;45.554;10.220;2023-03-16T07:02:16;100285.53;;;12.18;39.76
78825;BME280;68176;45.554;10.220;2023-03-16T07:04:52;100293.72;;;12.24;39.93
78825;BME280;68176;45.554;10.220;2023-03-16T07:07:18;100299.44;;;11.67;31.07
78825;BME280;68176;45.554;10.220;2023-03-16T07:09:46;100309.75;;;10.96;33.32
78825;BME280;68176;45.554;10.220;2023-03-16T07:12:16;100311.25;;;10.55;31.29
78825;BME280;68176;45.554;10.220;2023-03-16T07:14:46;100317.47;;;10.54;33.79
78825;BME280;68176;45.554;10.220;2023-03-16T07:17:16;100312.56;;;10.61;32.55
78825;BME280;68176;45.554;10.220;2023-03-16T07:19:46;100320.56;;;10.26;29.34
78825;BME280;68176;45.554;10.220;2023-03-16T07:22:16;100317.69;;;10.51;28.91
78825;BME280;68176;45.554;10.220;2023-03-16T07:24:46;100320.81;;;10.45;28.83
78825;BME280;68176;45.554;10.220;2023-03-16T07:27:16;100322.94;;;10.51;29.94
78825;BME280;68176;45.554;10.220;2023-03-16T07:29:46;100328.31;;;10.39;28.69
78825;BME280;68176;45.554;10.220;2023-03-16T07:32:16;100326.50;;;10.50;29.04
78825;BME280;68176;45.554;10.220;2023-03-16T07:34:46;100320.78;;;10.56;30.77
78825;BME280;68176;45.554;10.220;2023-03-16T07:37:16;100329.97;;;10.51;30.30
78825;BME280;68176;45.554;10.220;2023-03-16T07:40:41;100318.16;;;10.67;31.32
78825;BME280;68176;45.554;10.220;2023-03-16T07:43:13;100334.31;;;11.06;31.31
78825;BME280;68176;45.554;10.220;2023-03-16T07:45:46;100340.22;;;11.19;32.58
78825;BME280;68176;45.554;10.220;2023-03-16T07:48:12;100334.00;;;11.31;33.12
78825;BME280;68176;45.554;10.220;2023-03-16T07:50:38;100329.53;;;11.43;34.59
78825;BME280;68176;45.554;10.220;2023-03-16T07:53:08;100338.69;;;11.48;35.03
78825;BME280;68176;45.554;10.220;2023-03-16T07:55:37;100349.88;;;11.61;35.27
78825;BME280;68176;45.554;10.220;2023-03-16T07:58:09;100353.44;;;11.71;34.71
78825;BME280;68176;45.554;10.220;2023-03-16T08:07:11;100339.22;;;11.74;35.32
78825;BME280;68176;45.554;10.220;2023-03-16T08:10:35;100349.34;;;11.79;35.47
78825;BME280;68176;45.554;10.220;2023-03-16T08:13:03;100360.31;;;11.84;35.52
78825;BME280;68176;45.554;10.220;2023-03-16T08:15:29;100354.34;;;11.82;35.50
78825;BME280;68176;45.554;10.220;2023-03-16T08:18:09;100363.78;;;11.84;35.61
78825;BME280;68176;45.554;10.220;2023-03-16T08:20:45;100357.41;;;11.87;35.78
78825;BME280;68176;45.554;10.220;2023-03-16T08:23:19;100358.50;;;11.84;36.11
78825;BME280;68176;45.554;10.220;2023-03-16T08:25:51;100364.34;;;11.88;36.22
78825;BME280;68176;45.554;10.220;2023-03-16T08:28:25;100381.25;;;11.95;36.26
78825;BME280;68176;45.554;10.220;2023-03-16T08:31:07;100368.50;;;11.90;36.51
78825;BME280;68176;45.554;10.220;2023-03-16T08:33:44;100367.69;;;11.90;36.55
78825;BME280;68176;45.554;10.220;2023-03-16T08:36:22;100371.00;;;11.92;36.71
78825;BME280;68176;45.554;10.220;2023-03-16T08:38:52;100376.25;;;11.92;36.51
78825;BME280;68176;45.554;10.220;2023-03-16T08:41:19;100383.63;;;11.98;36.91
78825;BME280;68176;45.554;10.220;2023-03-16T08:43:47;100378.50;;;11.96;36.73
78825;BME280;68176;45.554;10.220;2023-03-16T08:46:16;100386.00;;;12.01;37.84
78825;BME280;68176;45.554;10.220;2023-03-16T08:48:46;100376.59;;;11.98;36.64
78825;BME280;68176;45.554;10.220;2023-03-16T08:51:19;100397.25;;;12.03;37.18
78825;BME280;68176;45.554;10.220;2023-03-16T08:53:47;100382.94;;;11.96;37.08
78825;BME280;68176;45.554;10.220;2023-03-16T08:56:19;100381.00;;;11.98;37.10
78825;BME280;68176;45.554;10.220;2023-03-16T08:59:05;100389.72;;;11.98;37.80
78825;BME280;68176;45.554;10.220;2023-03-16T09:02:15;100402.94;;;12.08;36.87
78825;BME280;68176;45.554;10.220;2023-03-16T09:04:24;100402.34;;;12.04;36.99
78825;BME280;68176;45.554;10.220;2023-03-16T09:06:50;100394.88;;;12.00;37.25
78825;BME280;68176;45.554;10.220;2023-03-16T09:09:18;100415.25;;;12.07;37.54
78825;BME280;68176;45.554;10.220;2023-03-16T09:11:48;100399.97;;;12.01;37.20
78825;BME280;68176;45.554;10.220;2023-03-16T09:14:18;100418.03;;;12.06;37.41
78825;BME280;68176;45.554;10.220;2023-03-16T09:17:18;100420.13;;;12.12;37.37
78825;BME280;68176;45.554;10.220;2023-03-16T09:20:13;100417.06;;;12.07;37.63
78825;BME280;68176;45.554;10.220;2023-03-16T09:22:52;100419.69;;;12.07;37.60
78825;BME280;68176;45.554;10.220;2023-03-16T09:28:10;100422.06;;;12.10;38.26
78825;BME280;68176;45.554;10.220;2023-03-16T09:31:03;100431.50;;;12.12;37.86
78825;BME280;68176;45.554;10.220;2023-03-16T09:33:52;100445.91;;;12.18;38.02
78825;BME280;68176;45.554;10.220;2023-03-16T09:46:51;100447.19;;;12.23;37.76
78825;BME280;68176;45.554;10.220;2023-03-16T09:53:21;100447.97;;;12.35;37.72
78825;BME280;68176;45.554;10.220;2023-03-16T09:59:55;100448.94;;;12.34;38.04
78825;BME280;68176;45.554;10.220;2023-03-16T10:09:20;100443.84;;;12.42;37.89
78825;BME280;68176;45.554;10.220;2023-03-16T10:11:55;100447.78;;;12.48;37.89
78825;BME280;68176;45.554;10.220;2023-03-16T10:48:18;100425.91;;;14.15;35.21
78825;BME280;68176;45.554;10.220;2023-03-16T10:50:55;100427.13;;;14.30;35.58
78825;BME280;68176;45.554;10.220;2023-03-16T10:53:28;100441.28;;;14.29;35.03
78825;BME280;68176;45.554;10.220;2023-03-16T10:55:59;100430.06;;;14.27;33.41
78825;BME280;68176;45.554;10.220;2023-03-16T10:58:29;100448.25;;;14.30;34.49
78825;BME280;68176;45.554;10.220;2023-03-16T11:01:27;100431.03;;;14.35;34.52
78825;BME280;68176;45.554;10.220;2023-03-16T11:03:56;100443.75;;;14.59;33.76
78825;BME280;68176;45.554;10.220;2023-03-16T11:06:29;100433.91;;;14.61;30.94
78825;BME280;68176;45.554;10.220;2023-03-16T11:09:20;100438.09;;;14.45;32.71
78825;BME280;68176;45.554;10.220;2023-03-16T11:11:47;100439.06;;;14.34;32.41
78825;BME280;68176;45.554;10.220;2023-03-16T11:14:14;100426.13;;;14.50;32.58
78825;BME280;68176;45.554;10.220;2023-03-16T11:16:50;100424.84;;;14.64;31.89
78825;BME280;68176;45.554;10.220;2023-03-16T11:26:57;100433.19;;;15.06;31.99
78825;BME280;68176;45.554;10.220;2023-03-16T12:45:32;100383.88;;;16.38;26.22
78825;BME280;68176;45.554;10.220;2023-03-16T12:50:53;100392.56;;;16.48;26.49
78825;BME280;68176;45.554;10.220;2023-03-16T12:53:45;100387.00;;;16.59;25.97
78825;BME280;68176;45.554;10.220;2023-03-16T16:50:43;100343.97;;;16.31;37.20
78825;BME280;68176;45.554;10.220;2023-03-16T18:41:38;100458.06;;;15.58;38.43
78825;BME280;68176;45.554;10.220;2023-03-16T18:48:21;100462.16;;;15.52;38.40
78825;BME280;68176;45.554;10.220;2023-03-16T19:19:40;100492.38;;;15.40;38.86
78825;BME280;68176;45.554;10.220;2023-03-16T19:49:26;100521.16;;;15.16;39.25
78825;BME280;68176;45.554;10.220;2023-03-16T19:54:53;100525.19;;;15.10;39.45
78825;BME280;68176;45.554;10.220;2023-03-16T19:57:55;100541.59;;;15.14;39.31
78825;BME280;68176;45.554;10.220;2023-03-16T20:00:32;100544.81;;;15.08;39.31
78825;BME280;68176;45.554;10.220;2023-03-16T20:03:42;100545.09;;;15.05;39.52
78825;BME280;68176;45.554;10.220;2023-03-16T20:07:35;100553.56;;;15.08;39.45
78825;BME280;68176;45.554;10.220;2023-03-16T20:09:32;100554.81;;;15.04;39.69
78825;BME280;68176;45.554;10.220;2023-03-16T20:13:05;100556.22;;;14.99;39.46
78825;BME280;68176;45.554;10.220;2023-03-16T20:20:09;100554.44;;;14.99;39.71
78825;BME280;68176;45.554;10.220;2023-03-16T20:26:43;100566.69;;;14.90;39.67
78825;BME280;68176;45.554;10.220;2023-03-16T20:29:30;100567.38;;;14.92;39.55
78825;BME280;68176;45.554;10.220;2023-03-16T20:39:04;100577.78;;;14.84;39.81
78825;BME280;68176;45.554;10.220;2023-03-16T20:41:56;100572.00;;;14.81;39.75
78825;BME280;68176;45.554;10.220;2023-03-16T20:48:17;100581.00;;;14.78;39.95
78825;BME280;68176;45.554;10.220;2023-03-16T20:51:36;100586.56;;;14.75;40.03
78825;BME280;68176;45.554;10.220;2023-03-16T21:04:38;100593.13;;;14.71;40.01
78825;BME280;68176;45.554;10.220;2023-03-16T21:08:06;100599.38;;;14.70;39.98
78825;BME280;68176;45.554;10.220;2023-03-16T21:24:42;100610.50;;;14.64;40.10
78825;BME280;68176;45.554;10.220;2023-03-16T22:45:46;100633.94;;;14.38;40.41
78825;BME280;68176;45.554;10.220;2023-03-16T22:51:34;100629.31;;;14.31;40.50
78825;BME280;68176;45.554;10.220;2023-03-16T22:54:12;100629.31;;;14.31;40.73
78825;BME280;68176;45.554;10.220;2023-03-16T22:56:53;100627.78;;;14.28;40.54
78825;BME280;68176;45.554;10.220;2023-03-16T22:59:32;100629.59;;;14.28;40.54
78825;BME280;68176;45.554;10.220;2023-03-16T23:01:59;100628.88;;;14.26;40.77
78825;BME280;68176;45.554;10.220;2023-03-16T23:04:26;100633.47;;;14.24;40.58
78825;BME280;68176;45.554;10.220;2023-03-16T23:06:57;100636.69;;;14.27;40.87
78825;BME280;68176;45.554;10.220;2023-03-16T23:09:24;100630.13;;;14.22;40.80
78825;BME280;68176;45.554;10.220;2023-03-16T23:11:54;100626.53;;;14.23;40.50
78825;BME280;68176;45.554;10.220;2023-03-16T23:14:35;100622.47;;;14.19;40.71
78825;BME280;68176;45.554;10.220;2023-03-16T23:17:04;100623.47;;;14.18;40.82
78825;BME280;68176;45.554;10.220;2023-03-16T23:19:43;100615.84;;;14.15;40.72
78825;BME280;68176;45.554;10.220;2023-03-16T23:22:21;100623.75;;;14.15;40.65
78825;BME280;68176;45.554;10.220;2023-03-16T23:25:16;100625.66;;;14.13;40.75
78825;BME280;68176;45.554;10.220;2023-03-16T23:27:47;100624.03;;;14.12;40.92
78825;BME280;68176;45.554;10.220;2023-03-16T23:30:50;100636.66;;;14.18;40.56
78825;BME280;68176;45.554;10.220;2023-03-16T23:33:20;100632.91;;;14.11;40.81
78825;BME280;68176;45.554;10.220;2023-03-16T23:35:55;100630.38;;;14.09;40.71
78825;BME280;68176;45.554;10.220;2023-03-16T23:38:32;100628.84;;;14.07;40.85
78825;BME280;68176;45.554;10.220;2023-03-16T23:40:58;100628.16;;;14.05;40.76
78825;BME280;68176;45.554;10.220;2023-03-16T23:43:35;100629.00;;;14.05;40.69
78825;BME280;68176;45.554;10.220;2023-03-16T23:46:25;100621.22;;;14.04;40.99
78825;BME280;68176;45.554;10.220;2023-03-16T23:49:04;100630.09;;;14.03;40.90
78825;BME280;68176;45.554;10.220;2023-03-16T23:51:35;100625.91;;;14.00;40.90
78825;BME280;68176;45.554;10.220;2023-03-16T23:54:12;100628.69;;;13.99;40.96
78825;BME280;68176;45.554;10.220;2023-03-16T23:56:46;100631.19;;;14.00;40.91
78825;BME280;68176;45.554;10.220;2023-03-16T23:59:17;100638.72;;;14.05;40.90
